Time;durP1;ratioP1;P1;durP2;ratioP2;P2;SDS_P1;SDS_P2;PMS_P1;PMS_P2;Temp;Humidity;BMP_temperature;BMP_pressure;BME280_temperature;BME280_humidity;BME280_pressure;Samples;Min_cycle;Max_cycle;Signal;HPM_P1;HPM_P2
2020/08/07 00:00:03;;;;;;;4.4;3.8;;;;;;;17.97;84.30566;942.4258;;;;
2020/08/07 00:02:28;;;;;;;6.6;3.7;;;;;;;;;;;;;
2020/08/07 00:04:55;;;;;;;4.6;3.5;;;;;;;;;;;;;
2020/08/07 00:07:20;;;;;;;6.1;3.4;;;;;;;;;;;;;
2020/08/07 00:09:46;;;;;;;4.1;3.6;;;;;;;;;;;;;
2020/08/07 00:12:11;;;;;;;5.4;3.8;;;;;;;;;;;;;
2020/08/07 00:14:36;;;;;;;4;3.7;;;;;;;;;;;;;
2020/08/07 00:17:01;;;;;;;4.3;3.6;;;;;;;;;;;;;
2020/08/07 00:19:26;;;;;;;5.3;3.7;;;;;;;;;;;;;
2020/08/07 00:21:53;;;;;;;6.8;4.1;;;;;;;;;;;;;
2020/08/07 00:24:18;;;;;;;4.7;3.9;;;;;;;;;;;;;
2020/08/07 00:26:43;;;;;;;5.1;4;;;;;;;;;;;;;
2020/08/07 00:29:10;;;;;;;4.7;3.5;;;;;;;;;;;;;
2020/08/07 00:31:35;;;;;;;4.9;3.9;;;;;;;;;;;;;
2020/08/07 00:34:01;;;;;;;4.1;3.6;;;;;;;;;;;;;
2020/08/07 00:36:26;;;;;;;4.3;3.9;;;;;;;;;;;;;
2020/08/07 00:38:52;;;;;;;4.4;3.3;;;;;;;;;;;;;
2020/08/07 00:41:17;;;;;;;6.4;3.7;;;;;;;;;;;;;
2020/08/07 00:43:42;;;;;;;5.6;3.9;;;;;;;;;;;;;
2020/08/07 00:46:08;;;;;;;4.7;4.2;;;;;;;;;;;;;
2020/08/07 00:48:33;;;;;;;7.5;4.1;;;;;;;;;;;;;
2020/08/07 00:50:59;;;;;;;4.3;3.8;;;;;;;;;;;;;
2020/08/07 00:53:24;;;;;;;3.8;3.4;;;;;;;;;;;;;
2020/08/07 00:55:50;;;;;;;4.3;3.9;;;;;;;;;;;;;
2020/08/07 00:58:15;;;;;;;4.5;4.1;;;;;;;;;;;;;
2020/08/07 01:00:40;;;;;;;5.7;4.1;;;;;;;;;;;;;
2020/08/07 01:03:05;;;;;;;4.9;4;;;;;;;;;;;;;
2020/08/07 01:05:31;;;;;;;6.6;4.3;;;;;;;;;;;;;
2020/08/07 01:07:56;;;;;;;6;4.2;;;;;;;;;;;;;
2020/08/07 01:10:21;;;;;;;5.2;4.1;;;;;;;;;;;;;
2020/08/07 01:12:47;;;;;;;8.8;4.2;;;;;;;;;;;;;
2020/08/07 01:15:12;;;;;;;10.4;4.5;;;;;;;;;;;;;
2020/08/07 01:17:39;;;;;;;5.5;4.4;;;;;;;;;;;;;
2020/08/07 01:20:04;;;;;;;6.4;4.3;;;;;;;;;;;;;
2020/08/07 01:22:30;;;;;;;7;4.1;;;;;;;;;;;;;
2020/08/07 01:24:55;;;;;;;6.9;4;;;;;;;;;;;;;
2020/08/07 01:27:21;;;;;;;5;3.9;;;;;;;;;;;;;
2020/08/07 01:29:46;;;;;;;4.8;3.9;;;;;;;;;;;;;
2020/08/07 01:32:13;;;;;;;4.8;3.9;;;;;;;;;;;;;
2020/08/07 01:34:38;;;;;;;4.5;3.7;;;;;;;;;;;;;
2020/08/07 01:37:05;;;;;;;5.2;3.9;;;;;;;;;;;;;
2020/08/07 01:39:31;;;;;;;4.2;3.8;;;;;;;;;;;;;
2020/08/07 01:41:59;;;;;;;4.3;3.9;;;;;;;;;;;;;
2020/08/07 01:44:25;;;;;;;5;4.2;;;;;;;;;;;;;
2020/08/07 01:46:50;;;;;;;4.8;3.9;;;;;;;;;;;;;
2020/08/07 01:49:16;;;;;;;4.8;4.4;;;;;;;;;;;;;
2020/08/07 01:51:42;;;;;;;4.6;4.2;;;;;;;;;;;;;
2020/08/07 01:54:08;;;;;;;5.2;4;;;;;;;;;;;;;
2020/08/07 01:56:33;;;;;;;7.4;4.6;;;;;;;;;;;;;
2020/08/07 01:58:58;;;;;;;6.5;4.2;;;;;;;;;;;;;
2020/08/07 02:01:23;;;;;;;4.8;4.1;;;;;;;;;;;;;
2020/08/07 02:03:48;;;;;;;4.8;4.1;;;;;;;;;;;;;
2020/08/07 02:06:14;;;;;;;6;4.1;;;;;;;;;;;;;
2020/08/07 02:08:39;;;;;;;5.1;4.4;;;;;;;;;;;;;
2020/08/07 02:11:09;;;;;;;5;4.2;;;;;;;;;;;;;
2020/08/07 02:13:34;;;;;;;4.3;3.9;;;;;;;;;;;;;
2020/08/07 02:15:59;;;;;;;5.2;4.3;;;;;;;;;;;;;
2020/08/07 02:18:24;;;;;;;5;4.3;;;;;;;;;;;;;
2020/08/07 02:20:50;;;;;;;3.9;3.6;;;;;;;;;;;;;
2020/08/07 02:23:15;;;;;;;5.1;4;;;;;;;;;;;;;
2020/08/07 02:25:41;;;;;;;6.7;4.2;;;;;;;;;;;;;
2020/08/07 02:28:06;;;;;;;6.8;4.2;;;;;;;;;;;;;
2020/08/07 02:30:36;;;;;;;4.8;4.3;;;;;;;;;;;;;
2020/08/07 02:33:04;;;;;;;7;4.5;;;;;;;;;;;;;
2020/08/07 02:35:29;;;;;;;7;4.9;;;;;;;;;;;;;
2020/08/07 02:37:55;;;;;;;5.6;4.4;;;;;;;;;;;;;
2020/08/07 02:40:21;;;;;;;5.3;4.3;;;;;;;;;;;;;
2020/08/07 02:42:47;;;;;;;6;4;;;;;;;;;;;;;
2020/08/07 02:45:12;;;;;;;5.7;4.4;;;;;;;;;;;;;
2020/08/07 02:47:40;;;;;;;5.6;4.5;;;;;;;;;;;;;
2020/08/07 02:50:05;;;;;;;4.9;4;;;;;;;;;;;;;
2020/08/07 02:52:30;;;;;;;4.9;4;;;;;;;;;;;;;
2020/08/07 02:54:55;;;;;;;5.3;4.2;;;;;;;;;;;;;
2020/08/07 02:57:20;;;;;;;5;4.1;;;;;;;;;;;;;
2020/08/07 02:59:45;;;;;;;12.5;5.1;;;;;;;;;;;;;
2020/08/07 03:02:11;;;;;;;5.7;4.4;;;;;;;;;;;;;
2020/08/07 03:04:36;;;;;;;7.1;4.6;;;;;;;;;;;;;
2020/08/07 03:07:02;;;;;;;4.8;4.3;;;;;;;;;;;;;
2020/08/07 03:09:27;;;;;;;4.9;4.3;;;;;;;;;;;;;
2020/08/07 03:11:54;;;;;;;8.5;4.6;;;;;;;;;;;;;
2020/08/07 03:14:19;;;;;;;5.4;4.5;;;;;;;;;;;;;
2020/08/07 03:16:44;;;;;;;5.3;4.1;;;;;;;;;;;;;
2020/08/07 03:19:10;;;;;;;4.1;3.8;;;;;;;;;;;;;
2020/08/07 03:21:35;;;;;;;9.1;4.7;;;;;;;;;;;;;
2020/08/07 03:24:00;;;;;;;6.4;4.3;;;;;;;;;;;;;
2020/08/07 03:26:27;;;;;;;4.7;4.2;;;;;;;;;;;;;
2020/08/07 03:28:52;;;;;;;5.6;4.3;;;;;;;;;;;;;
2020/08/07 03:31:19;;;;;;;5;4.5;;;;;;;;;;;;;
2020/08/07 03:33:44;;;;;;;5.1;4.6;;;;;;;;;;;;;
2020/08/07 03:36:11;;;;;;;6.5;5.1;;;;;;;;;;;;;
2020/08/07 03:38:36;;;;;;;7;4.9;;;;;;;;;;;;;
2020/08/07 03:41:05;;;;;;;5.8;5;;;;;;;;;;;;;
2020/08/07 03:43:30;;;;;;;6.6;5;;;;;;;;;;;;;
2020/08/07 03:45:55;;;;;;;5.5;4.9;;;;;;;;;;;;;
2020/08/07 03:48:20;;;;;;;6.5;5.3;;;;;;;;;;;;;
2020/08/07 03:50:45;;;;;;;7.1;5;;;;;;;;;;;;;
2020/08/07 03:53:10;;;;;;;5.3;4.7;;;;;;;;;;;;;
2020/08/07 03:55:35;;;;;;;8.5;5;;;;;;;;;;;;;
2020/08/07 03:58:00;;;;;;;7.1;5.2;;;;;;;;;;;;;
2020/08/07 04:02:31;;;;;;;6.5;4.7;;;;;;;16.08;92.43262;942.2372;;;;
2020/08/07 04:04:56;;;;;;;6.4;4.3;;;;;;;16.22;90.42383;942.2746;;;;
2020/08/07 04:07:21;;;;;;;6.2;4.2;;;;;;;16.3;89.26172;942.27;;;;
2020/08/07 04:09:46;;;;;;;6.6;4.8;;;;;;;16.11;91.00391;942.2645;;;;
2020/08/07 04:12:11;;;;;;;5.5;4.6;;;;;;;16.23;90.60254;942.2729;;;;
2020/08/07 04:14:38;;;;;;;5;4.4;;;;;;;16.35;89.57422;942.2569;;;;
2020/08/07 04:17:03;;;;;;;6.7;4.3;;;;;;;16.26;90.00488;942.2157;;;;
2020/08/07 04:19:29;;;;;;;6.6;4.7;;;;;;;16.33;89.50879;942.2579;;;;
2020/08/07 04:21:54;;;;;;;12.1;5.3;;;;;;;16.43;88.74414;942.317;;;;
2020/08/07 04:24:23;;;;;;;12;6.8;;;;;;;16.17;89.60449;942.3236;;;;
2020/08/07 04:26:49;;;;;;;11.3;6.8;;;;;;;16.17;89.56934;942.3011;;;;
2020/08/07 04:29:17;;;;;;;9.6;6.3;;;;;;;16.17;89.31543;942.318;;;;
2020/08/07 04:31:42;;;;;;;9.2;6.3;;;;;;;16.13;89.63184;942.2828;;;;
2020/08/07 04:34:07;;;;;;;8.7;5.4;;;;;;;16.11;89.98633;942.2974;;;;
2020/08/07 04:36:34;;;;;;;8.8;4.9;;;;;;;16.09;89.83203;942.332;;;;
2020/08/07 04:39:00;;;;;;;10.6;5.1;;;;;;;15.92;91.03223;942.2933;;;;
2020/08/07 04:41:33;;;;;;;13.8;5.3;;;;;;;15.87;91.06738;942.3617;;;;
2020/08/07 04:44:01;;;;;;;8;4.5;;;;;;;15.76;92.41992;942.3483;;;;
2020/08/07 04:46:32;;;;;;;8.4;4.9;;;;;;;15.96;92.0127;942.3774;;;;
2020/08/07 04:48:57;;;;;;;13.1;4.9;;;;;;;15.92;91.18262;942.3583;;;;
2020/08/07 04:51:25;;;;;;;10.4;5.1;;;;;;;15.76;92.35059;942.3386;;;;
2020/08/07 04:53:52;;;;;;;9.6;4.7;;;;;;;15.89;91.69727;942.3705;;;;
2020/08/07 04:56:22;;;;;;;10.5;5.2;;;;;;;16.1;90.41113;942.3448;;;;
2020/08/07 04:58:47;;;;;;;10.3;5.2;;;;;;;16;91.28223;942.3675;;;;
2020/08/07 05:01:15;;;;;;;12.7;5;;;;;;;16.09;91.10449;942.3594;;;;
2020/08/07 05:03:40;;;;;;;10.2;5.1;;;;;;;16.04;91.62305;942.4392;;;;
2020/08/07 05:06:08;;;;;;;7.3;4.5;;;;;;;15.97;92.10742;942.4448;;;;
2020/08/07 05:08:35;;;;;;;8;4.7;;;;;;;15.98;92.01855;942.4472;;;;
2020/08/07 05:11:05;;;;;;;5.4;4.3;;;;;;;16.09;91.48633;942.4637;;;;
2020/08/07 05:13:32;;;;;;;8.7;4.4;;;;;;;16.18;90.74023;942.4417;;;;
2020/08/07 05:16:00;;;;;;;5.3;4.4;;;;;;;16.12;90.6709;942.4532;;;;
2020/08/07 05:18:25;;;;;;;7.6;4.8;;;;;;;16.23;90.25195;942.4361;;;;
2020/08/07 05:20:54;;;;;;;7.1;4.7;;;;;;;16.27;89.9375;942.4728;;;;
2020/08/07 05:23:25;;;;;;;9.9;4.3;;;;;;;16.36;89.63184;942.4554;;;;
2020/08/07 05:25:54;;;;;;;7.6;4.4;;;;;;;16.5;89.61523;942.4411;;;;
2020/08/07 05:28:19;;;;;;;9.1;4.2;;;;;;;16.57;89.77832;942.3859;;;;
2020/08/07 05:30:48;;;;;;;5.8;3.5;;;;;;;16.91;91.08789;942.4808;;;;
2020/08/07 05:33:13;;;;;;;8.4;2.9;;;;;;;18.27;85.0957;942.3847;;;;
2020/08/07 05:35:39;;;;;;;8;2.7;;;;;;;19.86;77.57617;942.3538;;;;
2020/08/07 05:38:06;;;;;;;11.5;2.4;;;;;;;21.09;71.75781;942.3203;;;;
2020/08/07 05:40:43;;;;;;;8;2.3;;;;;;;21.94;68.10938;942.2502;;;;
2020/08/07 05:43:08;;;;;;;10.3;2.2;;;;;;;22.84;65.15918;942.2781;;;;
2020/08/07 05:45:37;;;;;;;5.4;1.7;;;;;;;23.96;61.3916;942.1973;;;;
2020/08/07 05:48:02;;;;;;;5.9;2.3;;;;;;;23.8;61.0293;942.2457;;;;
2020/08/07 05:50:30;;;;;;;7.6;1.9;;;;;;;24.37;59.25586;942.2433;;;;
2020/08/07 05:52:57;;;;;;;4.8;1.8;;;;;;;24.37;58.87988;942.27;;;;
2020/08/07 05:55:26;;;;;;;4.3;2;;;;;;;24.66;58.32813;942.2938;;;;
2020/08/07 05:57:54;;;;;;;2.6;1.4;;;;;;;25.55;56.625;942.2611;;;;
2020/08/07 06:00:19;;;;;;;3.5;1.9;;;;;;;25.59;55.05762;942.3025;;;;
2020/08/07 06:02:44;;;;;;;4.1;1.7;;;;;;;26.3;53.61914;942.2459;;;;
2020/08/07 06:05:10;;;;;;;3.1;1.7;;;;;;;27.37;51.36328;942.2799;;;;
2020/08/07 06:07:38;;;;;;;4.1;1.6;;;;;;;27.58;50.73438;942.3081;;;;
2020/08/07 06:10:03;;;;;;;4.2;1.6;;;;;;;27.09;50.5957;942.2858;;;;
2020/08/07 06:12:28;;;;;;;4;1.4;;;;;;;27.58;50.3418;942.2937;;;;
2020/08/07 06:14:53;;;;;;;3.7;2;;;;;;;27.95;49.49219;942.2783;;;;
2020/08/07 06:17:18;;;;;;;4.1;1.9;;;;;;;28.58;46.95703;942.3172;;;;
2020/08/07 06:19:43;;;;;;;2.8;1.6;;;;;;;27.37;49.5957;942.2659;;;;
2020/08/07 06:22:08;;;;;;;3.2;1.7;;;;;;;26.52;52.30664;942.3134;;;;
2020/08/07 06:24:34;;;;;;;5;2.5;;;;;;;26.45;52.00391;942.3688;;;;
2020/08/07 06:26:59;;;;;;;4.4;2.9;;;;;;;27.28;50.97363;942.3244;;;;
2020/08/07 06:29:26;;;;;;;11.3;3.3;;;;;;;28.5;48.1748;942.3557;;;;
2020/08/07 06:31:52;;;;;;;3.5;2.3;;;;;;;28.93;46.67188;942.3201;;;;
2020/08/07 06:34:17;;;;;;;5.6;2.1;;;;;;;29.61;45.88477;942.3356;;;;
2020/08/07 06:36:42;;;;;;;5.3;2;;;;;;;30.5;44.21973;942.2701;;;;
2020/08/07 06:39:07;;;;;;;3.7;1.5;;;;;;;29.15;46.00488;942.2678;;;;
2020/08/07 06:41:33;;;;;;;3;1.6;;;;;;;29.93;43.8291;942.2914;;;;
2020/08/07 06:43:58;;;;;;;4.8;1.7;;;;;;;30.25;43.76563;942.2578;;;;
2020/08/07 06:46:23;;;;;;;6.6;2.1;;;;;;;30.66;42.59766;942.2227;;;;
2020/08/07 06:48:51;;;;;;;2;1.5;;;;;;;30.91;41.11523;942.1688;;;;
2020/08/07 06:51:16;;;;;;;3.3;1.7;;;;;;;32.22;39.69824;942.1601;;;;
2020/08/07 06:53:41;;;;;;;3.8;1.6;;;;;;;33.32;38.25684;942.2029;;;;
2020/08/07 06:56:06;;;;;;;1.9;1.6;;;;;;;33.08;37.05859;942.1739;;;;
2020/08/07 06:58:33;;;;;;;3.3;1.6;;;;;;;32.85;37.68848;942.2;;;;
2020/08/07 07:01:00;;;;;;;2.2;1.5;;;;;;;32.95;37.4209;942.1674;;;;
2020/08/07 07:03:25;;;;;;;3.9;1.7;;;;;;;33.62;37.33105;942.144;;;;
2020/08/07 07:05:50;;;;;;;1.9;1.2;;;;;;;34.42;35.18066;942.1682;;;;
2020/08/07 07:08:15;;;;;;;2.7;1.5;;;;;;;34.74;34.5293;942.0932;;;;
2020/08/07 07:10:46;;;;;;;1.9;1.5;;;;;;;34.83;35.76758;942.017;;;;
2020/08/07 07:13:11;;;;;;;6.3;1.7;;;;;;;35.55;33.86621;942.0687;;;;
2020/08/07 07:15:51;;;;;;;2.3;1.4;;;;;;;34.98;33.83594;942.037;;;;
2020/08/07 07:20:32;;;;;;;3.6;1.5;;;;;;;35.66;34.88965;942.0237;;;;
2020/08/07 07:22:57;;;;;;;1.4;1.1;;;;;;;35.13;34.41504;942.0606;;;;
2020/08/07 07:25:28;;;;;;;1.5;1.1;;;;;;;35.89;32.75488;942.0069;;;;
2020/08/07 07:27:52;;;;;;;3.7;1.5;;;;;;;36.74;31.62988;942.0527;;;;
2020/08/07 07:30:28;;;;;;;2.6;1.2;;;;;;;36.42;32.87793;942.086;;;;
2020/08/07 07:32:56;;;;;;;2.4;1.3;;;;;;;36.42;33.30176;942.0474;;;;
2020/08/07 07:35:24;;;;;;;4;1.6;;;;;;;37.1;31.35156;942.0256;;;;
2020/08/07 07:37:50;;;;;;;2.4;1.1;;;;;;;36.98;30.70117;942.0455;;;;
2020/08/07 07:40:17;;;;;;;2.5;1.1;;;;;;;36.61;31.85059;942.0347;;;;
2020/08/07 07:42:42;;;;;;;2.6;1.3;;;;;;;36.79;31.05176;941.9761;;;;
2020/08/07 07:45:07;;;;;;;1.9;1.2;;;;;;;37.5;29.60742;941.9963;;;;
2020/08/07 07:47:36;;;;;;;1.8;1.3;;;;;;;35.94;34.5;941.9136;;;;
2020/08/07 07:50:05;;;;;;;1.8;1.3;;;;;;;34.62;36.60645;941.8569;;;;
2020/08/07 07:52:30;;;;;;;10.4;1.9;;;;;;;36.3;34.79395;941.8652;;;;
2020/08/07 07:54:55;;;;;;;6;2;;;;;;;37.41;33.50781;941.872;;;;
2020/08/07 07:57:21;;;;;;;6.5;1.7;;;;;;;38.27;31.88086;941.916;;;;
2020/08/07 07:59:46;;;;;;;4;1.6;;;;;;;38.23;31.36816;941.8514;;;;
2020/08/07 08:02:15;;;;;;;6.8;1.6;;;;;;;37.72;32.64355;941.8367;;;;
2020/08/07 08:04:40;;;;;;;4.9;1.4;;;;;;;36.94;32.69824;941.7863;;;;
2020/08/07 08:07:06;;;;;;;4.9;1.5;;;;;;;36.85;32.89648;941.8214;;;;
2020/08/07 08:09:31;;;;;;;3.2;1.4;;;;;;;37.14;33.08789;941.8459;;;;
2020/08/07 08:11:56;;;;;;;3.4;1.4;;;;;;;37.42;34.0166;941.8599;;;;
2020/08/07 08:14:21;;;;;;;4.6;1.4;;;;;;;36.84;35.59766;941.8424;;;;
2020/08/07 08:16:46;;;;;;;4.2;1.4;;;;;;;37;33.92578;941.8195;;;;
2020/08/07 08:19:11;;;;;;;6;1.7;;;;;;;38.06;30.76074;941.8756;;;;
2020/08/07 08:21:37;;;;;;;3.6;1.6;;;;;;;37.53;33.01855;941.8644;;;;
2020/08/07 08:24:01;;;;;;;8.2;1.4;;;;;;;37.63;34.48145;941.8602;;;;
2020/08/07 08:26:27;;;;;;;3;1.4;;;;;;;38.3;32.55176;941.8289;;;;
2020/08/07 08:28:52;;;;;;;2.9;1.1;;;;;;;38.81;31.57715;941.8267;;;;
2020/08/07 08:31:17;;;;;;;2.2;1.3;;;;;;;39.24;31.27832;941.8377;;;;
2020/08/07 08:33:45;;;;;;;2.6;1.4;;;;;;;39.92;29.1543;941.8652;;;;
2020/08/07 08:36:10;;;;;;;2.4;1.3;;;;;;;39.88;29.63965;941.8036;;;;
2020/08/07 08:38:35;;;;;;;1.9;0.9;;;;;;;40.43;28.58887;941.8552;;;;
2020/08/07 08:41:07;;;;;;;3.3;1.2;;;;;;;39.83;29.94141;941.8318;;;;
2020/08/07 08:43:32;;;;;;;2.9;1.2;;;;;;;39.01;30.77637;941.8583;;;;
2020/08/07 08:45:58;;;;;;;5.4;1.4;;;;;;;39.04;31.09473;941.817;;;;
2020/08/07 08:48:24;;;;;;;2;1;;;;;;;39.78;29.37695;941.8237;;;;
2020/08/07 08:50:52;;;;;;;1.9;1.2;;;;;;;39.93;29.37402;941.7751;;;;
2020/08/07 08:58:10;;;;;;;3.8;1.3;;;;;;;39.03;30.77734;941.7864;;;;
2020/08/07 09:00:41;;;;;;;3.2;1.2;;;;;;;39.1;31.85254;941.8072;;;;
2020/08/07 09:03:06;;;;;;;2.2;1.2;;;;;;;39.52;29.53125;941.7637;;;;
2020/08/07 09:05:34;;;;;;;2.4;1.3;;;;;;;40.49;28.96973;941.7572;;;;
2020/08/07 09:07:59;;;;;;;2.2;1.2;;;;;;;40.32;29.98438;941.7789;;;;
2020/08/07 09:10:27;;;;;;;4.6;1.5;;;;;;;39.75;28.80273;941.6944;;;;
2020/08/07 09:12:55;;;;;;;1.6;1.3;;;;;;;38.94;31.47656;941.7353;;;;
2020/08/07 09:15:31;;;;;;;1.2;1;;;;;;;38.89;30.90234;941.6765;;;;
2020/08/07 09:17:56;;;;;;;3;1.2;;;;;;;38.68;31.17969;941.6785;;;;
2020/08/07 09:20:23;;;;;;;3.6;1.4;;;;;;;37.8;32.68652;941.6802;;;;
2020/08/07 09:22:48;;;;;;;2.8;1.5;;;;;;;37.18;34.33887;941.6855;;;;
2020/08/07 09:25:14;;;;;;;4.9;1.4;;;;;;;36.87;35.21191;941.6558;;;;
2020/08/07 09:27:40;;;;;;;3.4;1.3;;;;;;;36.73;34.95898;941.6469;;;;
2020/08/07 09:30:05;;;;;;;2.3;1.3;;;;;;;36.29;35.92969;941.6348;;;;
2020/08/07 09:32:30;;;;;;;2.7;1.5;;;;;;;35.61;37.19336;941.6312;;;;
2020/08/07 09:34:55;;;;;;;1.6;1.4;;;;;;;35.38;37.41504;941.6845;;;;
2020/08/07 09:37:20;;;;;;;4;1.6;;;;;;;35.15;37.92676;941.6861;;;;
2020/08/07 09:39:45;;;;;;;2.9;1.5;;;;;;;34.72;39.37598;941.6625;;;;
2020/08/07 09:42:10;;;;;;;3.1;1.3;;;;;;;34.32;40.12305;941.6299;;;;
2020/08/07 09:44:37;;;;;;;3.7;1.5;;;;;;;34.34;40.7998;941.6845;;;;
2020/08/07 09:47:02;;;;;;;2.9;1.5;;;;;;;34.38;41.51465;941.6581;;;;
2020/08/07 09:49:27;;;;;;;1.4;1.3;;;;;;;34.12;41.16602;941.7307;;;;
2020/08/07 09:51:52;;;;;;;2.9;1.4;;;;;;;33.9;42.15625;941.6902;;;;
2020/08/07 09:54:17;;;;;;;2.5;1.6;;;;;;;33.55;41.96777;941.6962;;;;
2020/08/07 09:56:42;;;;;;;1.8;1.3;;;;;;;33.35;42.7793;941.7019;;;;
2020/08/07 09:59:08;;;;;;;3.2;1.5;;;;;;;33.53;43.0127;941.6522;;;;
2020/08/07 10:01:35;;;;;;;2.9;1.6;;;;;;;33.77;41.98828;941.6757;;;;
2020/08/07 10:04:00;;;;;;;5.3;1.8;;;;;;;33.92;42.09863;941.6905;;;;
2020/08/07 10:06:25;;;;;;;2;1.4;;;;;;;34.16;41.20508;941.7147;;;;
2020/08/07 10:08:51;;;;;;;2.2;1.4;;;;;;;34.09;40.64551;941.7082;;;;
2020/08/07 10:11:18;;;;;;;3.2;1.6;;;;;;;34.18;41.43652;941.6482;;;;
2020/08/07 10:13:44;;;;;;;3.9;1.8;;;;;;;34.23;40.59668;941.6284;;;;
2020/08/07 10:16:09;;;;;;;3.2;1.5;;;;;;;34.21;40.20996;941.7272;;;;
2020/08/07 10:18:34;;;;;;;3.3;1.7;;;;;;;34.35;40.39063;941.6658;;;;
2020/08/07 10:20:59;;;;;;;2.3;1.6;;;;;;;34.37;40.91016;941.6223;;;;
2020/08/07 10:23:24;;;;;;;3.5;1.6;;;;;;;34.27;41.09473;941.6583;;;;
2020/08/07 10:25:51;;;;;;;4;1.8;;;;;;;34.58;40.77344;941.597;;;;
2020/08/07 10:28:14;;;;;;;1.9;1.6;;;;;;;34.95;40.11914;941.5916;;;;
2020/08/07 10:30:39;;;;;;;2.2;1.6;;;;;;;35.57;39.31543;941.6068;;;;
2020/08/07 10:33:05;;;;;;;3.1;1.6;;;;;;;35.78;38.36621;941.5985;;;;
2020/08/07 10:35:32;;;;;;;3;1.7;;;;;;;35.83;38.27441;941.6106;;;;
2020/08/07 10:37:57;;;;;;;3.1;1.7;;;;;;;35.94;38.48828;941.5405;;;;
2020/08/07 10:40:22;;;;;;;2.7;1.6;;;;;;;36.12;37.80273;941.567;;;;
2020/08/07 10:42:47;;;;;;;3;1.6;;;;;;;36.34;37.28906;941.5539;;;;
2020/08/07 10:45:12;;;;;;;2.2;1.7;;;;;;;36.32;38.16992;941.5876;;;;
2020/08/07 10:47:38;;;;;;;3;1.5;;;;;;;36.47;38.36426;941.5316;;;;
2020/08/07 10:50:03;;;;;;;5;1.8;;;;;;;36.77;37.37207;941.5907;;;;
2020/08/07 10:52:28;;;;;;;4;1.7;;;;;;;36.85;36.19141;941.5364;;;;
2020/08/07 10:54:53;;;;;;;5.3;1.6;;;;;;;37.26;36.10254;941.5608;;;;
2020/08/07 10:57:18;;;;;;;3;1.7;;;;;;;37.14;35.79004;941.5223;;;;
2020/08/07 10:59:43;;;;;;;2.3;1.8;;;;;;;37.16;35.85156;941.5681;;;;
2020/08/07 11:02:10;;;;;;;2.7;1.7;;;;;;;36.88;36.07227;941.4844;;;;
2020/08/07 11:04:35;;;;;;;4.4;1.7;;;;;;;36.88;36.43555;941.5281;;;;
2020/08/07 11:07:01;;;;;;;2.7;1.6;;;;;;;36.89;36.7041;941.4924;;;;
2020/08/07 11:09:26;;;;;;;2.7;1.6;;;;;;;37.17;37.0166;941.5262;;;;
2020/08/07 11:11:51;;;;;;;2.6;1.6;;;;;;;37.19;36.31445;941.4684;;;;
2020/08/07 11:14:16;;;;;;;3.7;1.8;;;;;;;37.25;36.49023;941.4256;;;;
2020/08/07 11:16:42;;;;;;;2;1.5;;;;;;;36.55;37.47461;941.4331;;;;
2020/08/07 11:19:07;;;;;;;2.1;1.6;;;;;;;36.82;36.41895;941.4601;;;;
2020/08/07 11:21:32;;;;;;;2.3;1.6;;;;;;;36.95;36.30859;941.4244;;;;
2020/08/07 11:23:57;;;;;;;3.2;1.6;;;;;;;36.95;36.62402;941.3917;;;;
2020/08/07 11:26:22;;;;;;;2.5;1.7;;;;;;;36.8;37.16895;941.4217;;;;
2020/08/07 11:28:48;;;;;;;3.4;1.8;;;;;;;36.61;36.99609;941.4017;;;;
2020/08/07 11:31:13;;;;;;;2.7;1.6;;;;;;;36.32;36.56152;941.3881;;;;
2020/08/07 11:33:38;;;;;;;2.8;1.7;;;;;;;36.35;37.34961;941.3627;;;;
2020/08/07 11:36:03;;;;;;;3;1.8;;;;;;;36.29;37.58691;941.3108;;;;
2020/08/07 11:38:29;;;;;;;3.1;1.7;;;;;;;36.05;37.42188;941.2813;;;;
2020/08/07 11:41:07;;;;;;;4.8;2;;;;;;;35.77;38.17188;941.3606;;;;
2020/08/07 11:43:32;;;;;;;3.5;2.1;;;;;;;35.45;37.72363;941.3378;;;;
2020/08/07 11:45:59;;;;;;;3.4;1.8;;;;;;;35.35;38.10156;941.2906;;;;
2020/08/07 11:48:25;;;;;;;2.9;2;;;;;;;34.87;39.05078;941.3158;;;;
2020/08/07 11:50:50;;;;;;;3.2;1.8;;;;;;;34.68;39.43164;941.2725;;;;
2020/08/07 11:53:17;;;;;;;3.4;2;;;;;;;34.48;40.24609;941.2576;;;;
2020/08/07 11:55:46;;;;;;;4.4;2.4;;;;;;;34.4;41.35938;941.2549;;;;
2020/08/07 11:58:11;;;;;;;4.1;2;;;;;;;34.09;40.65723;941.2176;;;;
2020/08/07 12:00:39;;;;;;;5.1;2.4;;;;;;;33.79;41.97754;941.2896;;;;
2020/08/07 12:03:04;;;;;;;2.7;2;;;;;;;33.48;42.52637;941.3178;;;;
2020/08/07 12:05:30;;;;;;;3.3;2;;;;;;;33.17;42.73828;941.2592;;;;
2020/08/07 12:07:55;;;;;;;4.7;2.2;;;;;;;33.08;43.40137;941.2511;;;;
2020/08/07 12:10:20;;;;;;;2.9;2.2;;;;;;;32.9;43.86523;941.2062;;;;
2020/08/07 12:12:45;;;;;;;4.9;1.9;;;;;;;32.93;44.30078;941.2683;;;;
2020/08/07 12:15:10;;;;;;;4.4;2.3;;;;;;;32.94;41.69531;941.2653;;;;
2020/08/07 12:17:35;;;;;;;4.7;2.3;;;;;;;32.86;42.78027;941.2472;;;;
2020/08/07 12:20:02;;;;;;;2.9;2.2;;;;;;;32.59;41.8916;941.2542;;;;
2020/08/07 12:22:29;;;;;;;6.9;2.4;;;;;;;32.46;44.45898;941.2528;;;;
2020/08/07 12:24:54;;;;;;;5.6;2.4;;;;;;;32.48;43.57324;941.3097;;;;
2020/08/07 12:27:21;;;;;;;3.5;2.3;;;;;;;32.45;44.48145;941.264;;;;
2020/08/07 12:29:46;;;;;;;4.9;2.3;;;;;;;32.49;43.02246;941.3017;;;;
2020/08/07 12:32:12;;;;;;;4.6;2.4;;;;;;;32.39;42.71191;941.2961;;;;
2020/08/07 12:34:37;;;;;;;4.7;2.4;;;;;;;32.36;45.26465;941.2875;;;;
2020/08/07 12:37:02;;;;;;;6.4;2.5;;;;;;;32;44.46191;941.2414;;;;
2020/08/07 12:41:53;;;;;;;4.6;2.6;;;;;;;31.67;43.02832;941.334;;;;
2020/08/07 12:44:18;;;;;;;3.1;2.4;;;;;;;31.76;43.98242;941.3094;;;;
2020/08/07 12:46:43;;;;;;;3.9;2.7;;;;;;;31.68;41.37598;941.257;;;;
2020/08/07 12:49:08;;;;;;;3.6;2.2;;;;;;;31.9;42.85938;941.2972;;;;
2020/08/07 12:51:33;;;;;;;3.8;2.3;;;;;;;31.98;41.60742;941.3254;;;;
2020/08/07 12:53:59;;;;;;;3.6;2.4;;;;;;;32.11;41.31934;941.3262;;;;
2020/08/07 12:56:23;;;;;;;5.4;2.3;;;;;;;31.67;40.83594;941.351;;;;
2020/08/07 12:58:49;;;;;;;3.2;2.3;;;;;;;31.64;40.46191;941.38;;;;
2020/08/07 13:01:14;;;;;;;6.5;2.7;;;;;;;31.53;39.97363;941.3694;;;;
2020/08/07 13:03:39;;;;;;;5.8;2.3;;;;;;;31.42;40.83789;941.3292;;;;
2020/08/07 13:06:04;;;;;;;4.5;2.5;;;;;;;31.19;40.25586;941.3706;;;;
2020/08/07 13:08:29;;;;;;;7.5;2.2;;;;;;;30.94;39.74316;941.4124;;;;
2020/08/07 13:10:57;;;;;;;4.8;2.7;;;;;;;30.86;41.00293;941.3972;;;;
2020/08/07 13:13:22;;;;;;;5.8;2.4;;;;;;;30.67;41.80957;941.3535;;;;
2020/08/07 13:15:49;;;;;;;5.9;2.3;;;;;;;30.64;41.26953;941.3588;;;;
2020/08/07 13:18:16;;;;;;;3.6;2.4;;;;;;;30.67;40.91504;941.3604;;;;
2020/08/07 13:20:41;;;;;;;5.4;2.3;;;;;;;30.76;41.49609;941.3304;;;;
2020/08/07 13:23:07;;;;;;;4.5;2.4;;;;;;;30.7;39.95996;941.2897;;;;
2020/08/07 13:25:32;;;;;;;4.3;2.2;;;;;;;30.63;38.96289;941.3011;;;;
2020/08/07 13:27:57;;;;;;;6;2.4;;;;;;;30.4;40.73438;941.3134;;;;
2020/08/07 13:30:23;;;;;;;3.4;2.3;;;;;;;30.39;40.58984;941.3453;;;;
2020/08/07 13:32:48;;;;;;;4;2.6;;;;;;;30.25;40.39844;941.3329;;;;
2020/08/07 13:35:18;;;;;;;2.9;1.9;;;;;;;30.05;40.51172;941.3433;;;;
2020/08/07 13:37:43;;;;;;;5.1;2.3;;;;;;;30.04;41.38281;941.3627;;;;
2020/08/07 13:40:12;;;;;;;5.9;2.4;;;;;;;29.99;40.28027;941.402;;;;
2020/08/07 13:42:38;;;;;;;3.2;2.3;;;;;;;29.93;39.92871;941.3879;;;;
2020/08/07 13:45:02;;;;;;;2.9;2.1;;;;;;;29.83;40.61133;941.361;;;;
2020/08/07 13:47:30;;;;;;;5.6;2.3;;;;;;;29.97;41.7207;941.35;;;;
2020/08/07 13:49:56;;;;;;;4.3;2.2;;;;;;;29.97;40.05078;941.3131;;;;
2020/08/07 13:52:22;;;;;;;6.6;2.3;;;;;;;29.87;39.66016;941.3339;;;;
2020/08/07 13:54:47;;;;;;;3.3;2.3;;;;;;;29.88;39.50586;941.3615;;;;
2020/08/07 13:57:12;;;;;;;4;2.3;;;;;;;29.91;39.58203;941.3478;;;;
2020/08/07 13:59:39;;;;;;;3.4;2.1;;;;;;;29.93;39.40332;941.3492;;;;
2020/08/07 14:02:04;;;;;;;7.1;2.4;;;;;;;29.9;39.38965;941.3517;;;;
2020/08/07 14:04:30;;;;;;;3.8;2.2;;;;;;;29.86;37.57324;941.3223;;;;
2020/08/07 14:06:56;;;;;;;4.5;2.3;;;;;;;29.81;38.00977;941.3323;;;;
2020/08/07 14:09:22;;;;;;;2.9;2.4;;;;;;;29.74;36.93066;941.4244;;;;
2020/08/07 14:11:51;;;;;;;4.3;1.8;;;;;;;29.7;36.5332;941.4353;;;;
2020/08/07 14:14:16;;;;;;;3.9;2.1;;;;;;;29.72;37.10742;941.4453;;;;
2020/08/07 14:16:42;;;;;;;2.7;2;;;;;;;29.73;37.99121;941.3872;;;;
2020/08/07 14:19:07;;;;;;;6.7;2.3;;;;;;;29.78;38.30469;941.3608;;;;
2020/08/07 14:21:32;;;;;;;5.1;2.3;;;;;;;29.86;38.8252;941.369;;;;
2020/08/07 14:23:58;;;;;;;4;2.1;;;;;;;29.7;38.94141;941.3986;;;;
2020/08/07 14:26:23;;;;;;;7.1;2.2;;;;;;;29.6;39.41016;941.4166;;;;
2020/08/07 14:28:49;;;;;;;5.2;2.2;;;;;;;29.48;37.19531;941.3775;;;;
2020/08/07 14:31:15;;;;;;;4.7;2.4;;;;;;;29.42;39.07227;941.3723;;;;
2020/08/07 14:33:40;;;;;;;5.8;2.1;;;;;;;29.41;38.38086;941.3492;;;;
2020/08/07 14:36:05;;;;;;;3.4;2;;;;;;;29.39;37.68848;941.3758;;;;
2020/08/07 14:38:30;;;;;;;3.3;2;;;;;;;29.42;37.86914;941.3864;;;;
2020/08/07 14:40:57;;;;;;;3.7;2.1;;;;;;;29.33;38.08789;941.3794;;;;
2020/08/07 14:43:22;;;;;;;3.5;1.9;;;;;;;29.33;37.37402;941.3558;;;;
2020/08/07 14:45:48;;;;;;;3.5;2;;;;;;;29.26;38.95215;941.2903;;;;
2020/08/07 14:48:13;;;;;;;3;2;;;;;;;29.16;39.68066;941.2536;;;;
2020/08/07 14:50:38;;;;;;;4.1;2.1;;;;;;;29.14;39.21484;941.3145;;;;
2020/08/07 14:53:03;;;;;;;3.6;2;;;;;;;29.21;38.86523;941.3167;;;;
2020/08/07 14:55:28;;;;;;;5.2;2.1;;;;;;;29.25;38.18848;941.3106;;;;
2020/08/07 14:57:53;;;;;;;3.7;2.2;;;;;;;29.18;37.58691;941.2856;;;;
2020/08/07 15:02:50;;;;;;;6.7;2.4;;;;;;;29.05;39.0293;941.2812;;;;
2020/08/07 15:05:17;;;;;;;3.7;2.1;;;;;;;28.87;37.27637;941.3042;;;;
2020/08/07 15:07:42;;;;;;;4.2;2.4;;;;;;;28.91;37.70801;941.3025;;;;
2020/08/07 15:10:12;;;;;;;4.1;2.4;;;;;;;28.88;37.10938;941.2784;;;;
2020/08/07 15:12:37;;;;;;;6.1;2.4;;;;;;;28.68;38.12891;941.2684;;;;
2020/08/07 15:15:04;;;;;;;3.6;2.4;;;;;;;28.76;39.9082;941.3059;;;;
2020/08/07 15:17:32;;;;;;;6.5;2.8;;;;;;;28.8;41.53027;941.2594;;;;
2020/08/07 15:19:57;;;;;;;6.5;2.6;;;;;;;28.88;41.03809;941.2436;;;;
2020/08/07 15:22:22;;;;;;;9.6;3.2;;;;;;;28.9;39.74219;941.267;;;;
2020/08/07 15:24:47;;;;;;;7.7;3;;;;;;;28.82;38.47363;941.2729;;;;
2020/08/07 15:27:12;;;;;;;18.5;3.4;;;;;;;28.81;40.19727;941.2795;;;;
2020/08/07 15:29:40;;;;;;;9.3;3;;;;;;;28.73;39.21484;941.3208;;;;
2020/08/07 15:32:07;;;;;;;8.3;2.8;;;;;;;28.73;39.7627;941.2542;;;;
2020/08/07 15:34:31;;;;;;;5;2.5;;;;;;;28.58;38.40527;941.2969;;;;
2020/08/07 15:36:57;;;;;;;6.4;2.8;;;;;;;28.62;39.74121;941.2619;;;;
2020/08/07 15:39:22;;;;;;;5.4;2.6;;;;;;;28.51;38.61426;941.2925;;;;
2020/08/07 15:41:47;;;;;;;4.3;2.4;;;;;;;28.45;38.84668;941.2415;;;;
2020/08/07 15:44:12;;;;;;;4.6;2.7;;;;;;;28.37;38.24512;941.2928;;;;